sensor_id;sensor_type;location;lat;lon;timestamp;temperature;humidity
21108;DHT22;10712;52.944;9.098;2023-06-14T00:00:58;15.90;67.10
21108;DHT22;10712;52.944;9.098;2023-06-14T00:03:24;15.80;67.30
21108;DHT22;10712;52.944;9.098;2023-06-14T00:05:51;15.80;67.40
21108;DHT22;10712;52.944;9.098;2023-06-14T00:08:17;15.80;67.70
21108;DHT22;10712;52.944;9.098;2023-06-14T00:10:44;15.80;67.50
21108;DHT22;10712;52.944;9.098;2023-06-14T00:13:10;15.70;67.80
21108;DHT22;10712;52.944;9.098;2023-06-14T00:15:37;15.70;67.90
21108;DHT22;10712;52.944;9.098;2023-06-14T00:18:04;15.70;68.00
21108;DHT22;10712;52.944;9.098;2023-06-14T00:20:32;15.60;68.20
21108;DHT22;10712;52.944;9.098;2023-06-14T00:22:59;15.60;68.30
21108;DHT22;10712;52.944;9.098;2023-06-14T00:25:26;15.50;68.70
21108;DHT22;10712;52.944;9.098;2023-06-14T00:27:56;15.50;68.60
21108;DHT22;10712;52.944;9.098;2023-06-14T00:30:23;15.40;68.60
21108;DHT22;10712;52.944;9.098;2023-06-14T00:32:49;15.40;68.70
21108;DHT22;10712;52.944;9.098;2023-06-14T00:35:17;15.30;69.20
21108;DHT22;10712;52.944;9.098;2023-06-14T00:37:42;15.30;69.70
21108;DHT22;10712;52.944;9.098;2023-06-14T00:40:08;15.30;69.70
21108;DHT22;10712;52.944;9.098;2023-06-14T00:42:34;15.30;69.90
21108;DHT22;10712;52.944;9.098;2023-06-14T00:45:00;15.20;69.70
21108;DHT22;10712;52.944;9.098;2023-06-14T00:47:26;15.20;69.70
21108;DHT22;10712;52.944;9.098;2023-06-14T00:49:56;15.20;70.10
21108;DHT22;10712;52.944;9.098;2023-06-14T00:52:23;15.20;70.10
21108;DHT22;10712;52.944;9.098;2023-06-14T00:54:50;15.10;69.90
21108;DHT22;10712;52.944;9.098;2023-06-14T00:57:16;15.10;70.40
21108;DHT22;10712;52.944;9.098;2023-06-14T00:59:44;15.10;70.40
21108;DHT22;10712;52.944;9.098;2023-06-14T01:02:12;15.10;70.40
21108;DHT22;10712;52.944;9.098;2023-06-14T01:04:41;15.00;70.30
21108;DHT22;10712;52.944;9.098;2023-06-14T01:15:58;14.90;71.20
21108;DHT22;10712;52.944;9.098;2023-06-14T01:18:24;14.90;71.00
21108;DHT22;10712;52.944;9.098;2023-06-14T01:20:51;14.90;71.30
21108;DHT22;10712;52.944;9.098;2023-06-14T01:23:21;14.80;71.40
21108;DHT22;10712;52.944;9.098;2023-06-14T01:25:49;14.80;71.40
21108;DHT22;10712;52.944;9.098;2023-06-14T01:28:19;14.70;71.70
21108;DHT22;10712;52.944;9.098;2023-06-14T01:30:52;14.70;71.90
21108;DHT22;10712;52.944;9.098;2023-06-14T01:33:24;14.70;71.90
21108;DHT22;10712;52.944;9.098;2023-06-14T01:35:53;14.60;71.90
21108;DHT22;10712;52.944;9.098;2023-06-14T01:38:26;14.60;72.30
21108;DHT22;10712;52.944;9.098;2023-06-14T01:40:54;14.60;72.30
21108;DHT22;10712;52.944;9.098;2023-06-14T01:43:25;14.60;72.30
21108;DHT22;10712;52.944;9.098;2023-06-14T01:45:54;14.60;72.40
21108;DHT22;10712;52.944;9.098;2023-06-14T01:48:21;14.50;72.60
21108;DHT22;10712;52.944;9.098;2023-06-14T01:50:49;14.50;72.50
21108;DHT22;10712;52.944;9.098;2023-06-14T01:53:16;14.50;72.80
21108;DHT22;10712;52.944;9.098;2023-06-14T01:55:42;14.50;73.10
21108;DHT22;10712;52.944;9.098;2023-06-14T01:58:10;14.40;73.10
21108;DHT22;10712;52.944;9.098;2023-06-14T02:00:36;14.40;73.30
21108;DHT22;10712;52.944;9.098;2023-06-14T02:03:02;14.40;73.50
21108;DHT22;10712;52.944;9.098;2023-06-14T02:05:31;14.30;73.70
21108;DHT22;10712;52.944;9.098;2023-06-14T02:07:56;14.30;73.80
21108;DHT22;10712;52.944;9.098;2023-06-14T02:10:23;14.30;73.90
21108;DHT22;10712;52.944;9.098;2023-06-14T02:12:48;14.30;73.90
21108;DHT22;10712;52.944;9.098;2023-06-14T02:15:15;14.20;73.90
21108;DHT22;10712;52.944;9.098;2023-06-14T02:17:47;14.20;74.00
21108;DHT22;10712;52.944;9.098;2023-06-14T02:20:16;14.20;74.00
21108;DHT22;10712;52.944;9.098;2023-06-14T02:22:42;14.10;73.90
21108;DHT22;10712;52.944;9.098;2023-06-14T02:25:08;14.10;74.00
21108;DHT22;10712;52.944;9.098;2023-06-14T02:27:34;14.10;74.00
21108;DHT22;10712;52.944;9.098;2023-06-14T02:30:03;14.00;74.20
21108;DHT22;10712;52.944;9.098;2023-06-14T02:32:32;14.00;74.30
21108;DHT22;10712;52.944;9.098;2023-06-14T02:34:59;14.00;74.40
21108;DHT22;10712;52.944;9.098;2023-06-14T02:37:25;14.00;74.50
21108;DHT22;10712;52.944;9.098;2023-06-14T02:39:52;14.00;74.40
21108;DHT22;10712;52.944;9.098;2023-06-14T02:42:18;13.90;74.70
21108;DHT22;10712;52.944;9.098;2023-06-14T02:44:44;13.90;74.70
21108;DHT22;10712;52.944;9.098;2023-06-14T02:47:12;13.90;74.80
21108;DHT22;10712;52.944;9.098;2023-06-14T02:49:37;13.90;74.70
21108;DHT22;10712;52.944;9.098;2023-06-14T02:52:03;13.80;75.00
21108;DHT22;10712;52.944;9.098;2023-06-14T02:54:30;13.80;75.20
21108;DHT22;10712;52.944;9.098;2023-06-14T02:56:58;13.80;75.20
21108;DHT22;10712;52.944;9.098;2023-06-14T02:59:24;13.80;75.30
21108;DHT22;10712;52.944;9.098;2023-06-14T03:01:53;13.80;75.30
21108;DHT22;10712;52.944;9.098;2023-06-14T03:04:19;13.70;75.30
21108;DHT22;10712;52.944;9.098;2023-06-14T03:06:46;13.70;75.30
21108;DHT22;10712;52.944;9.098;2023-06-14T03:09:16;13.70;75.50
21108;DHT22;10712;52.944;9.098;2023-06-14T03:11:42;13.60;75.50
21108;DHT22;10712;52.944;9.098;2023-06-14T03:14:09;13.60;75.50
21108;DHT22;10712;52.944;9.098;2023-06-14T03:16:37;13.50;75.60
21108;DHT22;10712;52.944;9.098;2023-06-14T03:19:03;13.40;75.80
21108;DHT22;10712;52.944;9.098;2023-06-14T03:21:31;13.30;76.20
21108;DHT22;10712;52.944;9.098;2023-06-14T03:24:00;13.30;76.30
21108;DHT22;10712;52.944;9.098;2023-06-14T03:26:25;13.20;76.70
21108;DHT22;10712;52.944;9.098;2023-06-14T03:28:55;13.20;76.90
21108;DHT22;10712;52.944;9.098;2023-06-14T03:31:22;13.20;77.00
21108;DHT22;10712;52.944;9.098;2023-06-14T03:33:49;13.20;77.20
21108;DHT22;10712;52.944;9.098;2023-06-14T03:36:15;13.20;77.20
21108;DHT22;10712;52.944;9.098;2023-06-14T03:38:43;13.10;77.40
21108;DHT22;10712;52.944;9.098;2023-06-14T03:41:10;13.10;77.70
21108;DHT22;10712;52.944;9.098;2023-06-14T03:43:37;13.10;78.00
21108;DHT22;10712;52.944;9.098;2023-06-14T03:46:03;13.20;78.10
21108;DHT22;10712;52.944;9.098;2023-06-14T03:48:31;13.20;78.20
21108;DHT22;10712;52.944;9.098;2023-06-14T03:50:57;13.20;78.10
21108;DHT22;10712;52.944;9.098;2023-06-14T03:53:23;13.20;78.20
21108;DHT22;10712;52.944;9.098;2023-06-14T03:55:51;13.20;78.30
21108;DHT22;10712;52.944;9.098;2023-06-14T03:58:19;13.30;78.50
21108;DHT22;10712;52.944;9.098;2023-06-14T04:00:45;13.30;78.50
21108;DHT22;10712;52.944;9.098;2023-06-14T04:03:11;13.30;78.50
21108;DHT22;10712;52.944;9.098;2023-06-14T04:05:39;13.30;78.40
21108;DHT22;10712;52.944;9.098;2023-06-14T04:08:08;13.30;78.50
21108;DHT22;10712;52.944;9.098;2023-06-14T04:10:36;13.30;78.70
21108;DHT22;10712;52.944;9.098;2023-06-14T04:13:02;13.40;78.60
21108;DHT22;10712;52.944;9.098;2023-06-14T04:15:28;13.40;78.90
21108;DHT22;10712;52.944;9.098;2023-06-14T04:17:55;13.40;78.90
21108;DHT22;10712;52.944;9.098;2023-06-14T04:20:23;13.40;79.10
21108;DHT22;10712;52.944;9.098;2023-06-14T04:22:52;13.50;79.20
21108;DHT22;10712;52.944;9.098;2023-06-14T04:25:18;13.50;79.30
21108;DHT22;10712;52.944;9.098;2023-06-14T04:27:46;13.50;79.40
21108;DHT22;10712;52.944;9.098;2023-06-14T04:30:12;13.60;79.40
21108;DHT22;10712;52.944;9.098;2023-06-14T04:32:47;13.60;79.30
21108;DHT22;10712;52.944;9.098;2023-06-14T04:35:13;13.70;79.10
21108;DHT22;10712;52.944;9.098;2023-06-14T04:37:42;13.80;79.00
21108;DHT22;10712;52.944;9.098;2023-06-14T04:40:10;13.80;78.90
21108;DHT22;10712;52.944;9.098;2023-06-14T04:42:37;13.90;78.90
21108;DHT22;10712;52.944;9.098;2023-06-14T04:45:06;14.00;78.90
21108;DHT22;10712;52.944;9.098;2023-06-14T04:47:33;14.00;78.90
21108;DHT22;10712;52.944;9.098;2023-06-14T04:50:00;14.10;78.80
21108;DHT22;10712;52.944;9.098;2023-06-14T04:52:29;14.20;78.70
21108;DHT22;10712;52.944;9.098;2023-06-14T04:54:56;14.20;78.70
21108;DHT22;10712;52.944;9.098;2023-06-14T04:57:22;14.30;78.60
21108;DHT22;10712;52.944;9.098;2023-06-14T04:59:49;14.40;78.50
21108;DHT22;10712;52.944;9.098;2023-06-14T05:02:23;14.50;78.40
21108;DHT22;10712;52.944;9.098;2023-06-14T05:04:50;14.60;78.30
21108;DHT22;10712;52.944;9.098;2023-06-14T05:07:16;14.60;78.10
21108;DHT22;10712;52.944;9.098;2023-06-14T05:09:42;14.70;77.90
21108;DHT22;10712;52.944;9.098;2023-06-14T05:12:09;14.80;77.80
21108;DHT22;10712;52.944;9.098;2023-06-14T05:14:35;14.90;77.90
21108;DHT22;10712;52.944;9.098;2023-06-14T05:17:03;14.90;77.60
21108;DHT22;10712;52.944;9.098;2023-06-14T05:19:29;15.00;77.50
21108;DHT22;10712;52.944;9.098;2023-06-14T05:21:54;15.00;77.40
21108;DHT22;10712;52.944;9.098;2023-06-14T05:24:20;15.10;77.20
21108;DHT22;10712;52.944;9.098;2023-06-14T05:26:46;15.20;77.10
21108;DHT22;10712;52.944;9.098;2023-06-14T05:29:12;15.20;77.00
21108;DHT22;10712;52.944;9.098;2023-06-14T05:31:38;15.40;76.70
21108;DHT22;10712;52.944;9.098;2023-06-14T05:34:04;15.40;76.40
21108;DHT22;10712;52.944;9.098;2023-06-14T05:36:30;15.60;75.90
21108;DHT22;10712;52.944;9.098;2023-06-14T05:38:56;15.70;75.60
21108;DHT22;10712;52.944;9.098;2023-06-14T05:41:27;15.80;75.10
21108;DHT22;10712;52.944;9.098;2023-06-14T05:43:55;15.80;74.50
21108;DHT22;10712;52.944;9.098;2023-06-14T05:46:22;16.00;74.00
21108;DHT22;10712;52.944;9.098;2023-06-14T05:48:54;16.00;73.60
21108;DHT22;10712;52.944;9.098;2023-06-14T05:51:20;16.10;73.20
21108;DHT22;10712;52.944;9.098;2023-06-14T05:53:48;16.20;73.10
21108;DHT22;10712;52.944;9.098;2023-06-14T05:56:14;16.30;72.80
21108;DHT22;10712;52.944;9.098;2023-06-14T05:58:41;16.40;72.20
21108;DHT22;10712;52.944;9.098;2023-06-14T06:01:06;16.50;72.20
21108;DHT22;10712;52.944;9.098;2023-06-14T06:03:33;16.60;72.00
21108;DHT22;10712;52.944;9.098;2023-06-14T06:05:59;16.60;72.00
21108;DHT22;10712;52.944;9.098;2023-06-14T06:08:26;16.70;71.70
21108;DHT22;10712;52.944;9.098;2023-06-14T06:10:52;16.80;71.60
21108;DHT22;10712;52.944;9.098;2023-06-14T06:13:18;16.90;71.50
21108;DHT22;10712;52.944;9.098;2023-06-14T06:15:44;17.00;71.30
21108;DHT22;10712;52.944;9.098;2023-06-14T06:18:10;17.10;71.20
21108;DHT22;10712;52.944;9.098;2023-06-14T06:20:36;17.10;70.60
21108;DHT22;10712;52.944;9.098;2023-06-14T06:23:02;17.20;70.10
21108;DHT22;10712;52.944;9.098;2023-06-14T06:25:28;17.30;69.70
21108;DHT22;10712;52.944;9.098;2023-06-14T06:27:55;17.40;69.50
21108;DHT22;10712;52.944;9.098;2023-06-14T06:30:24;17.50;69.50
21108;DHT22;10712;52.944;9.098;2023-06-14T06:32:51;17.60;69.30
21108;DHT22;10712;52.944;9.098;2023-06-14T06:35:17;17.70;69.30
21108;DHT22;10712;52.944;9.098;2023-06-14T06:37:43;17.70;69.00
21108;DHT22;10712;52.944;9.098;2023-06-14T06:40:09;17.80;68.60
21108;DHT22;10712;52.944;9.098;2023-06-14T06:42:35;17.90;68.30
21108;DHT22;10712;52.944;9.098;2023-06-14T06:45:05;18.00;68.00
21108;DHT22;10712;52.944;9.098;2023-06-14T06:47:31;18.10;67.80
21108;DHT22;10712;52.944;9.098;2023-06-14T06:49:57;18.10;67.40
21108;DHT22;10712;52.944;9.098;2023-06-14T06:52:23;18.20;66.10
21108;DHT22;10712;52.944;9.098;2023-06-14T06:54:48;18.20;65.20
21108;DHT22;10712;52.944;9.098;2023-06-14T06:57:16;18.30;65.20
21108;DHT22;10712;52.944;9.098;2023-06-14T06:59:41;18.40;65.20
21108;DHT22;10712;52.944;9.098;2023-06-14T07:02:07;18.50;64.70
21108;DHT22;10712;52.944;9.098;2023-06-14T07:04:33;18.60;64.20
21108;DHT22;10712;52.944;9.098;2023-06-14T07:06:59;18.60;63.30
21108;DHT22;10712;52.944;9.098;2023-06-14T07:09:25;18.70;62.70
21108;DHT22;10712;52.944;9.098;2023-06-14T07:11:50;18.80;62.90
21108;DHT22;10712;52.944;9.098;2023-06-14T07:14:16;18.80;63.10
21108;DHT22;10712;52.944;9.098;2023-06-14T07:16:42;18.90;63.20
21108;DHT22;10712;52.944;9.098;2023-06-14T07:19:08;19.00;63.10
21108;DHT22;10712;52.944;9.098;2023-06-14T07:21:35;19.00;62.60
21108;DHT22;10712;52.944;9.098;2023-06-14T07:24:07;19.10;61.90
21108;DHT22;10712;52.944;9.098;2023-06-14T07:26:33;19.10;61.80
21108;DHT22;10712;52.944;9.098;2023-06-14T07:29:00;19.20;61.60
21108;DHT22;10712;52.944;9.098;2023-06-14T07:31:26;19.30;61.20
21108;DHT22;10712;52.944;9.098;2023-06-14T07:33:53;19.40;61.20
21108;DHT22;10712;52.944;9.098;2023-06-14T07:36:18;19.40;60.70
21108;DHT22;10712;52.944;9.098;2023-06-14T07:38:45;19.50;60.40
21108;DHT22;10712;52.944;9.098;2023-06-14T07:41:11;19.60;59.60
21108;DHT22;10712;52.944;9.098;2023-06-14T07:43:37;19.70;58.80
21108;DHT22;10712;52.944;9.098;2023-06-14T07:46:02;19.70;58.30
21108;DHT22;10712;52.944;9.098;2023-06-14T07:48:28;19.80;58.10
21108;DHT22;10712;52.944;9.098;2023-06-14T07:50:54;19.90;57.80
21108;DHT22;10712;52.944;9.098;2023-06-14T07:53:20;20.00;56.80
21108;DHT22;10712;52.944;9.098;2023-06-14T07:55:46;20.00;56.50
21108;DHT22;10712;52.944;9.098;2023-06-14T07:58:13;20.10;56.80
21108;DHT22;10712;52.944;9.098;2023-06-14T08:00:38;20.10;57.20
21108;DHT22;10712;52.944;9.098;2023-06-14T08:03:04;20.20;57.30
21108;DHT22;10712;52.944;9.098;2023-06-14T08:05:30;20.30;57.10
21108;DHT22;10712;52.944;9.098;2023-06-14T08:07:56;20.30;57.50
21108;DHT22;10712;52.944;9.098;2023-06-14T08:10:22;20.40;56.90
21108;DHT22;10712;52.944;9.098;2023-06-14T08:12:48;20.50;56.50
21108;DHT22;10712;52.944;9.098;2023-06-14T08:15:17;20.60;55.90
21108;DHT22;10712;52.944;9.098;2023-06-14T08:17:44;20.60;56.10
21108;DHT22;10712;52.944;9.098;2023-06-14T08:20:11;20.70;55.80
21108;DHT22;10712;52.944;9.098;2023-06-14T08:22:37;20.70;55.80
21108;DHT22;10712;52.944;9.098;2023-06-14T08:25:05;20.80;55.50
21108;DHT22;10712;52.944;9.098;2023-06-14T08:27:32;20.90;55.30
21108;DHT22;10712;52.944;9.098;2023-06-14T08:29:57;21.00;55.30
21108;DHT22;10712;52.944;9.098;2023-06-14T08:32:23;21.00;55.20
21108;DHT22;10712;52.944;9.098;2023-06-14T08:34:49;21.10;54.90
21108;DHT22;10712;52.944;9.098;2023-06-14T08:37:15;21.10;55.00
21108;DHT22;10712;52.944;9.098;2023-06-14T08:39:41;21.20;55.30
21108;DHT22;10712;52.944;9.098;2023-06-14T08:42:09;21.20;55.10
21108;DHT22;10712;52.944;9.098;2023-06-14T08:44:35;21.30;54.90
21108;DHT22;10712;52.944;9.098;2023-06-14T08:47:02;21.30;54.90
21108;DHT22;10712;52.944;9.098;2023-06-14T08:49:29;21.40;55.30
21108;DHT22;10712;52.944;9.098;2023-06-14T08:51:58;21.50;54.70
21108;DHT22;10712;52.944;9.098;2023-06-14T08:54:28;21.50;54.80
21108;DHT22;10712;52.944;9.098;2023-06-14T08:56:58;21.60;55.20
21108;DHT22;10712;52.944;9.098;2023-06-14T08:59:26;21.60;55.00
21108;DHT22;10712;52.944;9.098;2023-06-14T09:01:52;21.60;54.60
21108;DHT22;10712;52.944;9.098;2023-06-14T09:04:21;21.70;53.90
21108;DHT22;10712;52.944;9.098;2023-06-14T09:06:47;21.80;53.40
21108;DHT22;10712;52.944;9.098;2023-06-14T09:09:20;21.80;53.30
21108;DHT22;10712;52.944;9.098;2023-06-14T09:11:49;21.90;53.60
21108;DHT22;10712;52.944;9.098;2023-06-14T09:14:17;21.90;53.90
21108;DHT22;10712;52.944;9.098;2023-06-14T09:16:43;22.00;54.20
21108;DHT22;10712;52.944;9.098;2023-06-14T09:19:20;22.10;54.00
21108;DHT22;10712;52.944;9.098;2023-06-14T09:21:48;22.20;53.60
21108;DHT22;10712;52.944;9.098;2023-06-14T09:24:15;22.30;53.20
21108;DHT22;10712;52.944;9.098;2023-06-14T09:26:41;22.30;53.20
21108;DHT22;10712;52.944;9.098;2023-06-14T09:29:07;22.40;53.40
21108;DHT22;10712;52.944;9.098;2023-06-14T09:31:35;22.40;53.00
21108;DHT22;10712;52.944;9.098;2023-06-14T09:34:02;22.50;52.90
21108;DHT22;10712;52.944;9.098;2023-06-14T09:36:30;22.50;52.90
21108;DHT22;10712;52.944;9.098;2023-06-14T09:38:59;22.50;52.80
21108;DHT22;10712;52.944;9.098;2023-06-14T09:44:03;22.60;52.90
21108;DHT22;10712;52.944;9.098;2023-06-14T09:46:30;22.60;51.30
21108;DHT22;10712;52.944;9.098;2023-06-14T09:48:57;22.60;51.90
21108;DHT22;10712;52.944;9.098;2023-06-14T09:51:24;22.70;52.30
21108;DHT22;10712;52.944;9.098;2023-06-14T09:53:50;22.70;51.90
21108;DHT22;10712;52.944;9.098;2023-06-14T09:56:28;22.80;52.10
21108;DHT22;10712;52.944;9.098;2023-06-14T09:58:56;22.90;52.00
21108;DHT22;10712;52.944;9.098;2023-06-14T10:01:25;23.00;52.80
21108;DHT22;10712;52.944;9.098;2023-06-14T10:04:06;23.10;53.30
21108;DHT22;10712;52.944;9.098;2023-06-14T10:06:36;23.20;53.00
21108;DHT22;10712;52.944;9.098;2023-06-14T10:09:04;23.20;51.80
21108;DHT22;10712;52.944;9.098;2023-06-14T10:11:34;23.30;51.20
21108;DHT22;10712;52.944;9.098;2023-06-14T10:14:02;23.30;51.40
21108;DHT22;10712;52.944;9.098;2023-06-14T10:16:32;23.50;50.80
21108;DHT22;10712;52.944;9.098;2023-06-14T10:19:04;23.60;50.80
21108;DHT22;10712;52.944;9.098;2023-06-14T10:24:13;23.80;51.50
21108;DHT22;10712;52.944;9.098;2023-06-14T10:26:56;23.90;50.80
21108;DHT22;10712;52.944;9.098;2023-06-14T10:29:24;23.90;51.20
21108;DHT22;10712;52.944;9.098;2023-06-14T10:31:55;23.90;50.50
21108;DHT22;10712;52.944;9.098;2023-06-14T10:34:29;24.00;49.50
21108;DHT22;10712;52.944;9.098;2023-06-14T10:37:26;24.00;50.40
21108;DHT22;10712;52.944;9.098;2023-06-14T10:39:52;24.10;49.30
21108;DHT22;10712;52.944;9.098;2023-06-14T10:42:19;24.10;48.90
21108;DHT22;10712;52.944;9.098;2023-06-14T10:44:52;24.00;48.90
21108;DHT22;10712;52.944;9.098;2023-06-14T10:47:32;23.90;48.90
21108;DHT22;10712;52.944;9.098;2023-06-14T10:52:43;23.90;49.30
21108;DHT22;10712;52.944;9.098;2023-06-14T10:55:13;23.90;49.80
21108;DHT22;10712;52.944;9.098;2023-06-14T10:57:44;23.90;49.70
21108;DHT22;10712;52.944;9.098;2023-06-14T11:00:13;23.90;49.60
21108;DHT22;10712;52.944;9.098;2023-06-14T11:05:54;23.90;49.60
21108;DHT22;10712;52.944;9.098;2023-06-14T11:08:42;23.80;49.50
21108;DHT22;10712;52.944;9.098;2023-06-14T11:11:38;23.80;49.20
21108;DHT22;10712;52.944;9.098;2023-06-14T11:14:07;23.70;49.20
21108;DHT22;10712;52.944;9.098;2023-06-14T11:16:33;23.70;48.30
21108;DHT22;10712;52.944;9.098;2023-06-14T11:19:02;23.70;48.80
21108;DHT22;10712;52.944;9.098;2023-06-14T11:21:28;23.80;49.10
21108;DHT22;10712;52.944;9.098;2023-06-14T11:23:57;23.90;48.90
21108;DHT22;10712;52.944;9.098;2023-06-14T11:26:30;24.10;48.60
21108;DHT22;10712;52.944;9.098;2023-06-14T11:28:59;24.20;48.50
21108;DHT22;10712;52.944;9.098;2023-06-14T11:31:29;24.30;48.90
21108;DHT22;10712;52.944;9.098;2023-06-14T11:33:57;24.30;48.60
21108;DHT22;10712;52.944;9.098;2023-06-14T11:36:27;24.30;48.60
21108;DHT22;10712;52.944;9.098;2023-06-14T11:39:05;24.30;48.70
21108;DHT22;10712;52.944;9.098;2023-06-14T11:41:37;24.10;49.30
21108;DHT22;10712;52.944;9.098;2023-06-14T11:44:10;24.00;49.70
21108;DHT22;10712;52.944;9.098;2023-06-14T11:46:37;24.00;49.80
21108;DHT22;10712;52.944;9.098;2023-06-14T11:49:03;23.90;48.70
21108;DHT22;10712;52.944;9.098;2023-06-14T11:51:33;23.80;48.70
21108;DHT22;10712;52.944;9.098;2023-06-14T11:54:03;23.80;48.80
21108;DHT22;10712;52.944;9.098;2023-06-14T11:56:31;23.80;49.30
21108;DHT22;10712;52.944;9.098;2023-06-14T11:58:58;23.80;49.70
21108;DHT22;10712;52.944;9.098;2023-06-14T12:01:24;23.80;49.40
21108;DHT22;10712;52.944;9.098;2023-06-14T12:03:52;23.80;49.20
21108;DHT22;10712;52.944;9.098;2023-06-14T12:06:30;23.80;48.90
21108;DHT22;10712;52.944;9.098;2023-06-14T12:09:03;23.90;49.30
21108;DHT22;10712;52.944;9.098;2023-06-14T12:11:34;23.90;49.30
21108;DHT22;10712;52.944;9.098;2023-06-14T12:14:03;24.00;48.60
21108;DHT22;10712;52.944;9.098;2023-06-14T12:16:35;23.90;48.80
21108;DHT22;10712;52.944;9.098;2023-06-14T12:19:16;23.90;48.90
21108;DHT22;10712;52.944;9.098;2023-06-14T12:21:45;23.80;49.00
21108;DHT22;10712;52.944;9.098;2023-06-14T12:24:16;23.80;49.00
21108;DHT22;10712;52.944;9.098;2023-06-14T12:26:42;23.90;49.10
21108;DHT22;10712;52.944;9.098;2023-06-14T12:29:08;24.00;49.20
21108;DHT22;10712;52.944;9.098;2023-06-14T12:31:34;24.20;48.50
21108;DHT22;10712;52.944;9.098;2023-06-14T12:34:00;24.40;47.80
21108;DHT22;10712;52.944;9.098;2023-06-14T12:36:26;24.50;47.80
21108;DHT22;10712;52.944;9.098;2023-06-14T12:38:52;24.50;47.80
21108;DHT22;10712;52.944;9.098;2023-06-14T12:41:21;24.50;48.20
21108;DHT22;10712;52.944;9.098;2023-06-14T12:43:48;24.60;49.40
21108;DHT22;10712;52.944;9.098;2023-06-14T12:46:14;24.70;48.70
21108;DHT22;10712;52.944;9.098;2023-06-14T12:48:40;24.70;48.80
21108;DHT22;10712;52.944;9.098;2023-06-14T12:51:06;24.70;48.20
21108;DHT22;10712;52.944;9.098;2023-06-14T12:53:32;24.60;48.20
21108;DHT22;10712;52.944;9.098;2023-06-14T12:55:57;24.70;48.00
21108;DHT22;10712;52.944;9.098;2023-06-14T12:58:23;24.80;48.30
21108;DHT22;10712;52.944;9.098;2023-06-14T13:00:49;24.90;48.60
21108;DHT22;10712;52.944;9.098;2023-06-14T13:03:15;24.90;47.80
21108;DHT22;10712;52.944;9.098;2023-06-14T13:05:41;24.90;47.40
21108;DHT22;10712;52.944;9.098;2023-06-14T13:08:08;24.90;47.00
21108;DHT22;10712;52.944;9.098;2023-06-14T13:10:34;24.80;46.90
21108;DHT22;10712;52.944;9.098;2023-06-14T13:13:00;24.80;47.40
21108;DHT22;10712;52.944;9.098;2023-06-14T13:15:26;24.80;47.50
21108;DHT22;10712;52.944;9.098;2023-06-14T13:17:52;24.70;47.70
21108;DHT22;10712;52.944;9.098;2023-06-14T13:20:18;24.70;47.50
21108;DHT22;10712;52.944;9.098;2023-06-14T13:22:44;24.60;47.30
21108;DHT22;10712;52.944;9.098;2023-06-14T13:25:10;24.50;47.50
21108;DHT22;10712;52.944;9.098;2023-06-14T13:27:36;24.40;48.20
21108;DHT22;10712;52.944;9.098;2023-06-14T13:30:03;24.40;48.60
21108;DHT22;10712;52.944;9.098;2023-06-14T13:32:31;24.30;48.50
21108;DHT22;10712;52.944;9.098;2023-06-14T13:34:56;24.30;48.50
21108;DHT22;10712;52.944;9.098;2023-06-14T13:37:23;24.30;48.70
21108;DHT22;10712;52.944;9.098;2023-06-14T13:39:49;24.20;48.90
21108;DHT22;10712;52.944;9.098;2023-06-14T13:42:15;24.20;50.10
21108;DHT22;10712;52.944;9.098;2023-06-14T13:44:41;24.20;50.00
21108;DHT22;10712;52.944;9.098;2023-06-14T13:47:06;24.30;49.70
21108;DHT22;10712;52.944;9.098;2023-06-14T13:49:32;24.30;49.60
21108;DHT22;10712;52.944;9.098;2023-06-14T13:52:00;24.30;49.70
21108;DHT22;10712;52.944;9.098;2023-06-14T13:54:27;24.30;49.10
21108;DHT22;10712;52.944;9.098;2023-06-14T13:56:53;24.20;48.70
21108;DHT22;10712;52.944;9.098;2023-06-14T13:59:19;24.20;48.80
21108;DHT22;10712;52.944;9.098;2023-06-14T14:01:44;24.10;49.30
21108;DHT22;10712;52.944;9.098;2023-06-14T14:04:10;24.10;48.50
21108;DHT22;10712;52.944;9.098;2023-06-14T14:06:36;24.00;48.20
21108;DHT22;10712;52.944;9.098;2023-06-14T14:09:03;24.00;48.50
21108;DHT22;10712;52.944;9.098;2023-06-14T14:11:28;24.10;46.60
21108;DHT22;10712;52.944;9.098;2023-06-14T14:13:58;24.20;46.10
21108;DHT22;10712;52.944;9.098;2023-06-14T14:16:24;24.30;46.10
21108;DHT22;10712;52.944;9.098;2023-06-14T14:18:51;24.40;46.60
21108;DHT22;10712;52.944;9.098;2023-06-14T14:21:16;24.50;47.20
21108;DHT22;10712;52.944;9.098;2023-06-14T14:23:42;24.70;48.10
21108;DHT22;10712;52.944;9.098;2023-06-14T14:26:09;24.80;48.20
21108;DHT22;10712;52.944;9.098;2023-06-14T14:28:35;24.80;47.20
21108;DHT22;10712;52.944;9.098;2023-06-14T14:31:01;24.70;47.60
21108;DHT22;10712;52.944;9.098;2023-06-14T14:33:27;24.60;47.00
21108;DHT22;10712;52.944;9.098;2023-06-14T14:35:53;24.50;47.70
21108;DHT22;10712;52.944;9.098;2023-06-14T14:38:18;24.40;48.10
21108;DHT22;10712;52.944;9.098;2023-06-14T14:40:44;24.30;48.40
21108;DHT22;10712;52.944;9.098;2023-06-14T14:43:10;24.30;48.40
21108;DHT22;10712;52.944;9.098;2023-06-14T14:45:37;24.20;48.40
21108;DHT22;10712;52.944;9.098;2023-06-14T14:48:02;24.10;49.00
21108;DHT22;10712;52.944;9.098;2023-06-14T14:50:29;24.00;49.50
21108;DHT22;10712;52.944;9.098;2023-06-14T14:52:55;24.00;49.10
21108;DHT22;10712;52.944;9.098;2023-06-14T14:55:21;23.90;49.10
21108;DHT22;10712;52.944;9.098;2023-06-14T14:57:47;23.90;49.50
21108;DHT22;10712;52.944;9.098;2023-06-14T15:00:13;23.90;49.70
21108;DHT22;10712;52.944;9.098;2023-06-14T15:02:40;23.90;49.70
21108;DHT22;10712;52.944;9.098;2023-06-14T15:05:06;23.90;49.30
21108;DHT22;10712;52.944;9.098;2023-06-14T15:07:32;24.00;47.90
21108;DHT22;10712;52.944;9.098;2023-06-14T15:09:59;24.10;47.60
21108;DHT22;10712;52.944;9.098;2023-06-14T15:12:25;24.20;48.00
21108;DHT22;10712;52.944;9.098;2023-06-14T15:14:52;24.40;47.80
21108;DHT22;10712;52.944;9.098;2023-06-14T15:17:19;24.50;47.90
21108;DHT22;10712;52.944;9.098;2023-06-14T15:19:46;24.60;47.90
21108;DHT22;10712;52.944;9.098;2023-06-14T15:22:13;24.70;47.50
21108;DHT22;10712;52.944;9.098;2023-06-14T15:24:42;24.70;47.40
21108;DHT22;10712;52.944;9.098;2023-06-14T15:27:08;24.70;47.40
21108;DHT22;10712;52.944;9.098;2023-06-14T15:29:36;24.60;47.70
21108;DHT22;10712;52.944;9.098;2023-06-14T15:32:02;24.60;47.90
21108;DHT22;10712;52.944;9.098;2023-06-14T15:34:30;24.50;47.90
21108;DHT22;10712;52.944;9.098;2023-06-14T15:36:56;24.40;48.00
21108;DHT22;10712;52.944;9.098;2023-06-14T15:39:22;24.40;48.20
21108;DHT22;10712;52.944;9.098;2023-06-14T15:41:50;24.30;48.60
21108;DHT22;10712;52.944;9.098;2023-06-14T15:44:19;24.30;48.60
21108;DHT22;10712;52.944;9.098;2023-06-14T15:46:44;24.30;48.40
21108;DHT22;10712;52.944;9.098;2023-06-14T15:49:11;24.30;48.40
21108;DHT22;10712;52.944;9.098;2023-06-14T15:51:38;24.30;48.70